METAR Data
IDs: Format: Raw Decoded Include TAF

Data at: 1207 UTC 23 Sep 2018

KBAM 231155Z AUTO 12005KT 10SM CLR 07/M11 A3002 RMK AO1
KBAM 231135Z AUTO 16004KT 10SM CLR 07/M11 A3002 RMK AO1
KBAM 231115Z AUTO 15005KT 10SM CLR 07/M11 A3002 RMK AO1
KBAM 231055Z AUTO 11005KT 10SM CLR 07/M11 A3002 RMK AO1
KBAM 231035Z AUTO 16004KT 10SM CLR 06/M12 A3001 RMK AO1
KBAM 231015Z AUTO 16005KT 10SM CLR 09/M12 A3001 RMK AO1
KBAM 230955Z AUTO 18005KT 10SM CLR 10/M11 A3001 RMK AO1
KBAM 230935Z AUTO 18007KT 10SM CLR 09/M12 A3000 RMK AO1
KBAM 230915Z AUTO 20006KT 10SM CLR 08/M12 A3001 RMK AO1
KBAM 230850Z AUTO 20005KT 10SM CLR 10/M12 A3001 RMK AO1
KBAM 230835Z AUTO 20006KT 10SM CLR 10/M12 A3001 RMK AO1
KBAM 230815Z AUTO 17003KT 10SM CLR 10/M12 A3002 RMK AO1
KBAM 230755Z AUTO 23003KT 10SM CLR 10/M12 A3001 RMK AO1
KBAM 230735Z AUTO 16005KT 10SM CLR 10/M13 A3001 RMK AO1
KBAM 230715Z AUTO 23006KT 10SM CLR 10/M13 A3001 RMK AO1
KBAM 230655Z AUTO 23006KT 10SM CLR 10/M12 A3001 RMK AO1
KBAM 230635Z AUTO 21006KT 10SM CLR 11/M13 A3001 RMK AO1
KBAM 230615Z AUTO 19007KT 10SM CLR 11/M13 A3000 RMK AO1
KBAM 230555Z AUTO 00000KT 10SM CLR 13/M11 A3000 RMK AO1
KBAM 230535Z AUTO 31005KT 10SM CLR 15/M12 A3000 RMK AO1
KBAM 230515Z AUTO 00000KT 10SM CLR 17/M11 A3000 RMK AO1
KBAM 230455Z AUTO 36003KT 10SM CLR 13/M12 A3000 RMK AO1
KBAM 230435Z AUTO 00000KT 10SM CLR 12/M13 A2999 RMK AO1
KBAM 230415Z AUTO 22006KT 10SM CLR 14/M12 A2999 RMK AO1
KBAM 230355Z AUTO 22006KT 10SM CLR 15/M12 A3000 RMK AO1
KBAM 230335Z AUTO 21005KT 10SM CLR 16/M11 A2999 RMK AO1
KBAM 230315Z AUTO 21005KT 10SM CLR 17/M12 A3000 RMK AO1
KBAM 230255Z AUTO 22005KT 10SM CLR 18/M11 A3000 RMK AO1
KBAM 230235Z AUTO 20005KT 10SM CLR 20/M11 A2999 RMK AO1
KBAM 230215Z AUTO 27004KT 10SM CLR 21/M11 A2999 RMK AO1
KBAM 230155Z AUTO 27004KT 10SM CLR 23/M11 A2999 RMK AO1
KBAM 230135Z AUTO 27005KT 10SM CLR 25/M11 A2999 RMK AO1
KBAM 230115Z AUTO 26007KT 10SM CLR 26/M11 A2999 RMK AO1
KBAM 230055Z AUTO 26014KT 10SM CLR 27/M11 A2999 RMK AO1
KBAM 230035Z AUTO 26012G19KT 10SM CLR 28/M10 A2998 RMK AO1
KBAM 230015Z AUTO 25012G18KT 10SM CLR 28/M10 A2998 RMK AO1
KBAM 222355Z AUTO 24014G19KT 10SM CLR 29/M08 A2999 RMK AO1
KBAM 222335Z AUTO 24012G18KT 10SM CLR 29/M07 A2998 RMK AO1
KBAM 222315Z AUTO 24012G22KT 10SM CLR 30/M07 A2999 RMK AO1
KBAM 222255Z AUTO 25015G24KT 10SM CLR 30/M07 A2999 RMK AO1
KBAM 222235Z AUTO 25017G22KT 10SM CLR 30/M06 A3000 RMK AO1
KBAM 222215Z AUTO 26016G22KT 10SM CLR 30/M06 A3000 RMK AO1
KBAM 222155Z AUTO 26013G18KT 10SM CLR 30/M06 A3000 RMK AO1
KBAM 222135Z AUTO 23015KT 10SM CLR 30/M06 A3001 RMK AO1
KBAM 222115Z AUTO 23008G15KT 10SM CLR 30/M06 A3002 RMK AO1
KBAM 222055Z AUTO 25011G16KT 10SM CLR 30/M07 A3004 RMK AO1
KBAM 222035Z AUTO 23011G16KT 10SM CLR 29/M07 A3005 RMK AO1
KBAM 222015Z AUTO 23010G18KT 10SM CLR 29/M07 A3005 RMK AO1
KBAM 221955Z AUTO 25005KT 10SM CLR 29/M07 A3006 RMK AO1
KBAM 221935Z AUTO 34003KT 10SM CLR 27/M07 A3007 RMK AO1
KBAM 221915Z AUTO 00000KT 10SM CLR 27/M07 A3008 RMK AO1
KBAM 221855Z AUTO 31004KT 10SM CLR 26/M07 A3009 RMK AO1
KBAM 221835Z AUTO 22004KT 10SM CLR 25/M07 A3010 RMK AO1
KBAM 221815Z AUTO 25003KT 10SM CLR 25/M07 A3011 RMK AO1
KBAM 221755Z AUTO 32003KT 10SM CLR 23/M07 A3011 RMK AO1
KBAM 221735Z AUTO 35003KT 10SM CLR 23/M07 A3011 RMK AO1
KBAM 221715Z AUTO 00000KT 10SM CLR 22/M07 A3011 RMK AO1
KBAM 221655Z AUTO 08004KT 10SM CLR 20/M08 A3012 RMK AO1
KBAM 221635Z AUTO 00000KT 10SM CLR 18/M08 A3012 RMK AO1
KBAM 221615Z AUTO 00000KT 10SM CLR 16/M08 A3013 RMK AO1
KBAM 221555Z AUTO 00000KT 10SM CLR 15/M08 A3013 RMK AO1
KBAM 221535Z AUTO 00000KT 10SM CLR 13/M09 A3012 RMK AO1
KBAM 221515Z AUTO 00000KT 10SM CLR 12/M09 A3013 RMK AO1
KBAM 221455Z AUTO 00000KT 10SM CLR 08/M10 A3013 RMK AO1
KBAM 221435Z AUTO 00000KT 10SM CLR 05/M11 A3013 RMK AO1
KBAM 221415Z AUTO 00000KT 10SM CLR 03/M12 A3013 RMK AO1
KBAM 221355Z AUTO 18006KT 10SM CLR 03/M12 A3012 RMK AO1
KBAM 221335Z AUTO 13004KT 10SM CLR 03/M12 A3012 RMK AO1
KBAM 221315Z AUTO 00000KT 10SM CLR 05/M10 A3011 RMK AO1
KBAM 221255Z AUTO 25004KT 10SM CLR 04/M11 A3011 RMK AO1
KBAM 221235Z AUTO 25004KT 10SM CLR 05/M11 A3011 RMK AO1
KBAM 221215Z AUTO 00000KT 10SM CLR 03/M11 A3011 RMK AO1
KBAM 221155Z AUTO 10003KT 10SM CLR 03/M09 A3011 RMK AO1
KBAM 221135Z AUTO 10004KT 10SM CLR 06/M09 A3011 RMK AO1
KBAM 221115Z AUTO 00000KT 10SM CLR 09/M10 A3011 RMK AO1
KBAM 221055Z AUTO 00000KT 10SM CLR 09/M10 A3011 RMK AO1
KBAM 221035Z AUTO 25006KT 10SM CLR 08/M09 A3011 RMK AO1
KBAM 221015Z AUTO 00000KT 10SM CLR 06/M10 A3011 RMK AO1
KBAM 220955Z AUTO 06005KT 10SM CLR 06/M09 A3011 RMK AO1
KBAM 220935Z AUTO 06004KT 10SM CLR 06/M09 A3011 RMK AO1
KBAM 220915Z AUTO 00000KT 10SM CLR 07/M10 A3011 RMK AO1
KBAM 220855Z AUTO 05003KT 10SM CLR 07/M11 A3011 RMK AO1
KBAM 220835Z AUTO 16005KT 10SM CLR 07/M11 A3011 RMK AO1
KBAM 220815Z AUTO 13005KT 10SM CLR 08/M11 A3011 RMK AO1
KBAM 220755Z AUTO 16003KT 10SM CLR 08/M10 A3011 RMK AO1
KBAM 220735Z AUTO 18006KT 10SM CLR 07/M11 A3011 RMK AO1
KBAM 220715Z AUTO 16004KT 10SM CLR 10/M10 A3011 RMK AO1
KBAM 220655Z AUTO 15006KT 10SM CLR 12/M10 A3011 RMK AO1
KBAM 220635Z AUTO 15006KT 10SM CLR 11/M10 A3011 RMK AO1
KBAM 220615Z AUTO 18003KT 10SM CLR 11/M10 A3011 RMK AO1
KBAM 220555Z AUTO 15005KT 10SM CLR 11/M10 A3011 RMK AO1
KBAM 220535Z AUTO 16006KT 10SM CLR 11/M10 A3011 RMK AO1
KBAM 220515Z AUTO 16006KT 10SM CLR 11/M11 A3011 RMK AO1
KBAM 220455Z AUTO 22007KT 10SM CLR 13/M09 A3011 RMK AO1
KBAM 220435Z AUTO 21005KT 10SM CLR 16/M08 A3011 RMK AO1
KBAM 220415Z AUTO 22006KT 10SM CLR 17/M09 A3011 RMK AO1
KBAM 220355Z AUTO 00000KT 10SM CLR 18/M08 A3010 RMK AO1
KBAM 220335Z AUTO 00000KT 10SM CLR 17/M10 A3010 RMK AO1
KBAM 220315Z AUTO 00000KT 10SM CLR 16/M10 A3010 RMK AO1
KBAM 220255Z AUTO 24006KT 10SM CLR 18/M09 A3008 RMK AO1
KBAM 220235Z AUTO 27003KT 10SM CLR 20/M08 A3008 RMK AO1
KBAM 220215Z AUTO 24007KT 10SM CLR 21/M08 A3007 RMK AO1
KBAM 220155Z AUTO 23005KT 10SM CLR 24/M07 A3006 RMK AO1
KBAM 220135Z AUTO 23006KT 10SM CLR 26/M07 A3006 RMK AO1
KBAM 220115Z AUTO 24005KT 10SM CLR 28/M07 A3006 RMK AO1
KBAM 220055Z AUTO 26009KT 10SM CLR 29/M07 A3005 RMK AO1
KBAM 220035Z AUTO 26006KT 10SM CLR 29/M07 A3005 RMK AO1
KBAM 220015Z AUTO 26008KT 10SM CLR 30/M07 A3006 RMK AO1